.
WxDataArchive / Data Records for 2012-06-23
2012-06-22 June 2012 2012-06-24

Data Records for Saturday, 23 June 2012

Time	Temp	Chill	HIndex	Humid	Dewpt	 Wind 	HiWind	WindDir	Rain 	Barom 
-----	----	-----	------	-----	-----	------	------	-------	-----	----- 
00:00	67.8	67.8	67.8	56	51.5	0	0	---	0.00	29.954 
00:05	67.6	67.6	67.6	57	51.8	0	0	---	0.00	29.954 
00:10	67.3	67.3	67.3	57	51.5	0	0	---	0.00	29.954 
00:15	67.1	67.1	67.1	58	51.8	0	0	---	0.00	29.957 
00:20	66.9	66.9	66.9	58	51.6	0	0	---	0.00	29.957 
00:25	66.8	66.8	66.8	58	51.5	0	0	---	0.00	29.957 
00:30	66.4	66.4	66.4	58	51.2	0	0	---	0.00	29.956 
00:35	66.3	66.3	66.3	58	51.1	0	0	---	0.00	29.956 
00:40	66.0	66.0	66.0	58	50.8	0	0	---	0.00	29.956 
00:45	65.6	65.6	65.6	59	50.9	0	0	---	0.00	29.957 
00:50	65.3	65.3	65.3	60	51.1	0	0	---	0.00	29.957 
00:55	65.0	65.0	65.0	61	51.2	0	0	---	0.00	29.957 
01:00	64.7	64.7	64.7	62	51.4	0	0	---	0.00	29.961 
01:05	64.7	64.7	64.7	62	51.4	0	0	---	0.00	29.961 
01:10	64.8	64.8	64.8	62	51.5	0	0	---	0.00	29.961 
01:15	64.8	64.8	64.8	61	51.0	0	0	---	0.00	29.960 
01:20	64.8	64.8	64.8	61	51.0	0	0	---	0.00	29.960 
01:25	64.7	64.7	64.7	61	50.9	0	0	---	0.00	29.960 
01:30	64.5	64.5	64.5	61	50.7	0	0	---	0.00	29.962 
01:35	64.2	64.2	64.2	62	50.9	0	0	---	0.00	29.962 
01:40	64.0	64.0	64.0	63	51.1	0	0	---	0.00	29.962 
01:45	63.7	63.7	63.7	63	50.9	0	0	---	0.00	29.964 
01:50	63.5	63.5	63.5	64	51.1	0	0	---	0.00	29.964 
01:55	63.2	63.2	63.2	65	51.2	0	0	---	0.00	29.964 
02:00	63.1	63.1	63.1	65	51.1	0	0	---	0.00	29.966 
02:05	62.7	62.7	62.7	66	51.2	0	0	---	0.00	29.966 
02:10	62.4	62.4	62.4	67	51.3	0	0	---	0.00	29.966 
02:15	62.3	62.3	62.3	68	51.6	0	0	---	0.00	29.964 
02:20	62.0	62.0	62.0	69	51.7	0	0	---	0.00	29.964 
02:25	61.8	61.8	61.8	69	51.5	0	0	---	0.00	29.964 
02:30	61.6	61.6	61.6	70	51.7	0	0	---	0.00	29.968 
02:35	61.3	61.3	61.3	71	51.8	0	0	---	0.00	29.968 
02:40	61.3	61.3	61.3	72	52.2	0	0	---	0.00	29.968 
02:45	61.2	61.2	61.2	73	52.5	0	0	---	0.00	29.970 
02:50	61.0	61.0	61.0	73	52.3	0	0	---	0.00	29.970 
02:55	60.9	60.9	60.9	73	52.2	0	0	---	0.00	29.970 
03:00	60.7	60.7	60.7	74	52.4	0	0	---	0.00	29.969 
03:05	60.5	60.5	60.5	75	52.5	0	0	---	0.00	29.969 
03:10	60.4	60.4	60.4	76	52.8	0	0	---	0.00	29.969 
03:15	60.2	60.2	60.2	77	53.0	0	0	---	0.00	29.969 
03:20	60.1	60.1	60.1	77	52.9	0	0	---	0.00	29.969 
03:25	60.1	60.1	60.1	77	52.9	0	0	---	0.00	29.969 
03:30	59.9	59.9	59.9	77	52.7	0	0	---	0.00	29.973 
03:35	59.8	59.8	59.8	78	52.9	0	0	---	0.00	29.973 
03:40	59.6	59.6	59.6	78	52.7	0	0	---	0.00	29.973 
03:45	59.6	59.6	59.6	80	53.4	0	0	---	0.00	29.971 
03:50	59.5	59.5	59.5	80	53.3	0	0	---	0.00	29.971 
03:55	59.3	59.3	59.3	81	53.5	0	0	---	0.00	29.971 
04:00	59.3	59.3	59.3	81	53.5	0	0	---	0.00	29.976 
04:05	59.3	59.3	59.3	81	53.5	0	0	---	0.00	29.976 
04:10	59.3	59.3	59.3	82	53.8	0	0	---	0.00	29.976 
04:15	59.3	59.3	59.3	82	53.8	0	0	---	0.00	29.977 
04:20	59.3	59.3	59.3	83	54.1	0	0	---	0.00	29.977 
04:25	59.3	59.3	59.3	83	54.1	0	0	---	0.00	29.977 
04:30	59.3	59.3	59.3	83	54.1	0	0	---	0.00	29.983 
04:35	59.3	59.3	59.3	83	54.1	0	0	---	0.00	29.983 
04:40	59.3	59.3	59.3	82	53.8	0	0	---	0.00	29.983 
04:45	59.2	59.2	59.2	82	53.7	0	0	---	0.00	29.983 
04:50	59.2	59.2	59.2	82	53.7	0	0	---	0.00	29.983 
04:55	59.0	59.0	59.0	82	53.5	0	0	---	0.00	29.983 
05:00	58.9	58.9	58.9	82	53.4	0	0	---	0.00	29.985 
05:05	58.7	58.7	58.7	82	53.2	0	0	---	0.00	29.985 
05:10	58.6	58.6	58.6	82	53.1	0	0	---	0.00	29.985 
05:15	58.6	58.6	58.6	83	53.4	0	0	---	0.00	29.987 
05:20	58.4	58.4	58.4	83	53.3	0	0	---	0.00	29.987 
05:25	58.4	58.4	58.4	83	53.3	0	0	---	0.00	29.987 
05:30	58.4	58.4	58.4	84	53.6	0	0	---	0.00	29.991 
05:35	58.4	58.4	58.4	83	53.3	0	0	---	0.00	29.991 
05:40	58.4	58.4	58.4	83	53.3	0	0	---	0.00	29.991 
05:45	58.4	58.4	58.4	83	53.3	0	0	---	0.00	29.987 
05:50	58.4	58.4	58.4	83	53.3	0	0	---	0.00	29.987 
05:55	58.3	58.3	58.3	83	53.2	0	0	---	0.00	29.987 
06:00	58.1	58.1	58.1	84	53.3	0	0	---	0.00	29.987 
06:05	58.1	58.1	58.1	84	53.3	0	0	---	0.00	29.987 
06:10	58.1	58.1	58.1	84	53.3	0	0	---	0.00	29.987 
06:15	58.0	58.0	58.0	84	53.2	0	0	---	0.00	29.988 
06:20	58.0	58.0	58.0	85	53.5	0	0	---	0.00	29.988 
06:25	57.8	57.8	57.8	85	53.3	0	0	---	0.00	29.988 
06:30	58.0	58.0	58.0	85	53.5	0	0	---	0.00	29.991 
06:35	58.0	58.0	58.0	85	53.5	0	0	---	0.00	29.991 
06:40	58.0	58.0	58.0	85	53.5	0	0	---	0.00	29.991 
06:45	58.0	58.0	58.0	85	53.5	0	0	---	0.00	30.004 
06:50	58.1	58.1	58.1	86	53.9	0	0	---	0.00	30.004 
06:55	58.3	58.3	58.3	86	54.1	0	0	---	0.00	30.004 
07:00	58.4	58.4	58.4	86	54.2	0	0	---	0.00	30.004 
07:05	58.6	58.6	58.6	86	54.4	0	0	---	0.00	30.004 
07:10	58.9	58.9	58.9	86	54.7	0	0	---	0.00	30.004 
07:15	59.0	59.0	59.0	86	54.8	0	0	---	0.00	29.996 
07:20	59.3	59.3	59.3	86	55.1	0	0	---	0.00	29.996 
07:25	59.8	59.8	59.8	85	55.3	0	0	---	0.00	29.996 
07:30	60.5	60.5	60.5	85	56.0	0	0	---	0.00	30.001 
07:35	61.3	61.3	61.3	84	56.4	0	0	---	0.00	30.001 
07:40	62.1	62.1	62.1	81	56.2	0	0	---	0.00	30.001 
07:45	62.7	62.7	62.7	79	56.1	0	0	---	0.00	30.000 
07:50	63.5	63.5	63.5	77	56.2	0	0	---	0.00	30.000 
07:55	64.3	64.3	64.3	76	56.6	0	0	---	0.00	30.000 
08:00	65.2	65.2	65.2	74	56.7	0	0	---	0.00	29.998 
08:05	66.4	66.4	66.4	71	56.7	0	2	292	0.00	29.998 
08:10	67.6	67.6	67.6	71	57.9	0	0	---	0.00	29.998 
08:15	68.3	68.3	68.3	69	57.7	0	1	292	0.00	30.000 
08:20	68.9	68.9	68.9	68	57.9	0	0	---	0.00	30.000 
08:25	69.9	69.9	69.9	65	57.6	0	1	292	0.00	30.000 
08:30	70.8	70.8	70.8	62	57.1	0	2	292	0.00	30.004 
08:35	71.6	71.6	71.6	60	57.0	0	3	292	0.00	30.004 
08:40	72.3	72.3	72.3	58	56.7	0	3	292	0.00	30.004 
08:45	72.7	72.7	72.7	58	57.1	0	2	292	0.00	30.007 
08:50	72.8	72.8	72.8	58	57.1	1	3	0	0.00	30.007 
08:55	73.2	73.2	73.2	58	57.5	0	2	0	0.00	30.007 
09:00	73.3	73.3	73.3	58	57.6	0	1	0	0.00	30.009 
09:05	73.7	73.7	73.7	58	58.0	0	1	0	0.00	30.009 
09:10	74.6	74.6	74.6	56	57.8	0	1	0	0.00	30.009 
09:15	75.3	75.3	77.7	56	58.5	0	1	0	0.00	30.012 
09:20	75.3	75.3	77.6	57	59.0	0	3	0	0.00	30.012 
09:25	75.4	75.4	77.8	54	57.6	1	3	0	0.00	30.012 
09:30	75.6	75.6	77.8	56	58.8	0	1	0	0.00	30.016 
09:35	75.8	75.8	78.0	55	58.5	0	3	0	0.00	30.016 
09:40	76.0	76.0	78.1	54	58.1	1	3	0	0.00	30.016 
09:45	76.3	76.3	78.2	52	57.4	0	2	0	0.00	30.013 
09:50	76.8	76.8	78.5	50	56.7	1	4	90	0.00	30.013 
09:55	76.8	76.8	78.5	51	57.3	1	4	90	0.00	30.013 
10:00	76.8	76.8	78.4	48	55.6	2	4	90	0.00	30.010 
10:05	76.8	76.8	78.5	49	56.2	2	5	90	0.00	30.010 
10:10	77.2	77.2	78.7	49	56.5	1	3	90	0.00	30.010 
10:15	77.7	77.7	78.9	48	56.4	1	4	90	0.00	30.012 
10:20	78.1	78.1	79.3	49	57.4	1	3	90	0.00	30.012 
10:25	78.1	78.1	79.2	47	56.2	1	3	90	0.00	30.012 
10:30	78.5	78.5	79.4	47	56.6	0	1	90	0.00	30.010 
10:35	78.6	78.6	79.4	45	55.5	1	4	90	0.00	30.010 
10:40	78.8	78.8	79.5	45	55.6	1	4	90	0.00	30.010 
10:45	79.0	79.0	79.7	46	56.4	1	4	90	0.00	30.011 
10:50	79.4	79.4	79.8	43	54.9	1	3	90	0.00	30.011 
10:55	79.8	79.8	80.0	42	54.6	2	4	90	0.00	30.011 
11:00	80.1	80.1	80.0	40	53.6	0	2	90	0.00	30.012 
11:05	80.1	80.1	80.2	42	54.9	1	3	90	0.00	30.012 
11:10	79.9	79.9	79.8	39	52.7	1	4	90	0.00	30.012 
11:15	80.1	80.1	79.9	39	52.9	1	4	90	0.00	30.013 
11:20	80.1	80.1	80.0	40	53.6	2	4	90	0.00	30.013 
11:25	79.9	79.9	79.7	38	52.0	2	3	90	0.00	30.013 
11:30	80.1	80.1	79.8	38	52.2	1	3	90	0.00	30.012 
11:35	79.8	79.8	79.7	39	52.6	0	1	90	0.00	30.012 
11:40	79.9	79.9	79.9	41	54.1	0	1	90	0.00	30.012 
11:45	80.1	80.1	79.9	39	52.9	0	2	90	0.00	30.018 
11:50	80.1	80.1	79.9	39	52.9	0	2	90	0.00	30.018 
11:55	80.3	80.3	80.1	40	53.8	0	2	90	0.00	30.018 
12:00	80.7	80.7	80.3	39	53.4	1	3	90	0.00	30.020 
12:05	81.2	81.2	80.8	40	54.6	1	4	90	0.00	30.020 
12:10	80.9	80.9	80.5	39	53.6	1	3	90	0.00	30.020 
12:15	80.9	80.9	80.6	40	54.3	0	2	90	0.00	30.018 
12:20	81.2	81.2	80.7	39	53.9	0	2	90	0.00	30.018 
12:25	82.0	82.0	81.5	40	55.3	1	3	90	0.00	30.018 
12:30	82.6	82.6	81.7	38	54.4	1	3	90	0.00	30.019 
12:35	82.6	82.6	81.5	36	52.9	2	3	90	0.00	30.019 
12:40	82.4	82.4	81.3	36	52.7	1	5	90	0.00	30.019 
12:45	81.8	81.8	81.2	39	54.4	2	5	90	0.00	30.016 
12:50	81.8	81.8	81.3	40	55.1	2	4	90	0.00	30.016 
12:55	82.0	82.0	81.1	37	53.1	1	3	90	0.00	30.016 
13:00	81.8	81.8	81.0	37	53.0	0	1	90	0.00	30.018 
13:05	82.4	82.4	81.3	36	52.7	0	2	90	0.00	30.018 
13:10	83.0	83.0	82.1	38	54.7	0	2	90	0.00	30.018 
13:15	83.2	83.2	82.0	36	53.4	1	4	90	0.00	30.021 
13:20	83.2	83.2	82.0	36	53.4	1	2	90	0.00	30.021 
13:25	83.4	83.4	82.1	35	52.8	1	3	90	0.00	30.021 
13:30	83.6	83.6	82.2	35	53.0	1	4	90	0.00	30.020 
13:35	84.1	84.1	82.3	32	51.0	1	4	270	0.00	30.020 
13:40	84.5	84.5	82.6	32	51.4	1	3	270	0.00	30.020 
13:45	84.3	84.3	83.1	37	55.2	1	3	315	0.00	30.015 
13:50	85.1	85.1	83.5	34	53.5	1	3	248	0.00	30.015 
13:55	85.7	85.7	83.7	32	52.4	1	3	135	0.00	30.015 
14:00	85.9	85.9	84.2	34	54.2	3	6	90	0.00	30.006 
14:05	85.1	85.1	83.3	33	52.7	2	7	90	0.00	30.006 
14:10	84.0	84.0	82.6	35	53.4	1	4	90	0.00	30.006 
14:15	83.2	83.2	82.0	36	53.4	0	3	90	0.00	30.005 
14:20	82.6	82.6	81.3	34	51.4	0	1	90	0.00	30.005 
14:25	82.6	82.6	81.4	35	52.1	0	2	90	0.00	30.005 
14:30	82.6	82.6	81.5	36	52.9	0	2	90	0.00	30.001 
14:35	82.6	82.6	81.3	34	51.4	0	1	90	0.00	30.001 
14:40	82.6	82.6	81.6	37	53.7	1	3	90	0.00	30.001 
14:45	82.2	82.2	81.0	34	51.0	2	5	90	0.00	30.003 
14:50	81.8	81.8	81.1	38	53.7	1	3	90	0.00	30.003 
14:55	81.4	81.4	80.9	39	54.0	0	1	90	0.00	30.003 
15:00	81.6	81.6	81.1	40	54.9	1	4	90	0.00	30.004 
15:05	82.4	82.4	81.1	34	51.2	2	3	90	0.00	30.004 
15:10	83.2	83.2	81.9	35	52.7	0	1	90	0.00	30.004 
15:15	84.3	84.3	82.9	35	53.6	0	2	90	0.00	30.007 
15:20	84.9	84.9	83.0	32	51.7	2	5	90	0.00	30.007 
15:25	85.3	85.3	83.1	30	50.3	1	3	90	0.00	30.007 
15:30	85.3	85.3	83.6	34	53.7	0	3	90	0.00	30.001 
15:35	84.9	84.9	82.9	31	50.9	1	2	90	0.00	30.001 
15:40	84.7	84.7	83.0	33	52.4	0	3	90	0.00	30.001 
15:45	84.9	84.9	83.1	33	52.6	0	2	90	0.00	29.996 
15:50	85.3	85.3	83.4	32	52.1	1	3	90	0.00	29.996 
15:55	85.5	85.5	83.6	32	52.2	1	3	270	0.00	29.996 
16:00	85.3	85.3	83.1	30	50.3	1	5	112	0.00	29.993 
16:05	85.1	85.1	83.3	33	52.7	0	3	112	0.00	29.993 
16:10	84.7	84.7	82.6	30	49.8	1	4	112	0.00	29.993 
16:15	84.5	84.5	82.6	32	51.4	1	3	90	0.00	29.987 
16:20	84.5	84.5	82.6	32	51.4	1	3	180	0.00	29.987 
16:25	84.7	84.7	83.0	33	52.4	1	3	135	0.00	29.987 
16:30	84.9	84.9	83.0	32	51.7	1	3	135	0.00	29.987 
16:35	84.9	84.9	82.9	31	50.9	1	3	135	0.00	29.987 
16:40	84.9	84.9	82.9	31	50.9	1	3	135	0.00	29.987 
16:45	84.7	84.7	83.1	34	53.2	2	4	68	0.00	29.986 
16:50	84.5	84.5	82.8	33	52.2	2	4	135	0.00	29.986 
16:55	84.5	84.5	82.9	34	53.0	1	3	90	0.00	29.986 
17:00	84.5	84.5	82.9	34	53.0	2	6	90	0.00	29.989 
17:05	84.3	84.3	82.9	35	53.6	1	4	90	0.00	29.989 
17:10	84.3	84.3	82.7	34	52.8	1	3	90	0.00	29.989 
17:15	84.1	84.1	82.5	34	52.7	2	5	90	0.00	29.988 
17:20	83.8	83.8	82.4	35	53.2	1	4	90	0.00	29.988 
17:25	83.6	83.6	82.2	35	53.0	2	4	112	0.00	29.988 
17:30	83.4	83.4	82.1	35	52.8	1	5	112	0.00	29.987 
17:35	83.4	83.4	82.2	36	53.6	1	4	112	0.00	29.987 
17:40	83.6	83.6	82.2	35	53.0	1	4	180	0.00	29.987 
17:45	83.6	83.6	82.2	35	53.0	1	3	90	0.00	29.986 
17:50	83.4	83.4	81.9	34	52.1	2	4	90	0.00	29.986 
17:55	83.4	83.4	82.1	35	52.8	1	3	90	0.00	29.986 
18:00	83.6	83.6	82.2	35	53.0	1	3	90	0.00	29.986 
18:05	83.6	83.6	82.1	34	52.2	1	3	90	0.00	29.986 
18:10	83.6	83.6	82.2	35	53.0	1	2	90	0.00	29.986 
18:15	83.6	83.6	82.2	35	53.0	1	5	90	0.00	29.976 
18:20	83.2	83.2	82.1	37	54.2	2	5	90	0.00	29.976 
18:25	83.2	83.2	81.9	35	52.7	1	3	112	0.00	29.976 
18:30	83.4	83.4	81.9	34	52.1	1	2	112	0.00	29.972 
18:35	83.2	83.2	81.9	35	52.7	1	3	112	0.00	29.972 
18:40	83.2	83.2	81.9	35	52.7	1	3	112	0.00	29.972 
18:45	83.2	83.2	82.0	36	53.4	1	3	112	0.00	29.970 
18:50	83.2	83.2	82.0	36	53.4	0	3	112	0.00	29.970 
18:55	83.2	83.2	81.9	35	52.7	1	2	112	0.00	29.970 
19:00	83.2	83.2	81.8	34	51.9	1	2	112	0.00	29.971 
19:05	83.4	83.4	81.9	34	52.1	0	2	112	0.00	29.971 
19:10	83.4	83.4	82.1	35	52.8	1	3	112	0.00	29.971 
19:15	83.4	83.4	81.9	34	52.1	1	2	135	0.00	29.961 
19:20	83.2	83.2	81.8	34	51.9	1	3	135	0.00	29.961 
19:25	83.0	83.0	81.5	33	50.9	0	2	135	0.00	29.961 
19:30	82.8	82.8	81.6	35	52.3	0	1	135	0.00	29.963 
19:35	82.6	82.6	81.3	34	51.4	0	1	135	0.00	29.963 
19:40	82.6	82.6	81.3	34	51.4	0	1	135	0.00	29.963 
19:45	82.4	82.4	81.1	34	51.2	0	1	135	0.00	29.967 
19:50	82.2	82.2	81.0	34	51.0	0	1	135	0.00	29.967 
19:55	82.2	82.2	81.0	34	51.0	0	1	135	0.00	29.967 
20:00	82.0	82.0	80.8	34	50.8	0	2	135	0.00	29.969 
20:05	81.8	81.8	80.8	35	51.4	0	1	135	0.00	29.969 
20:10	81.6	81.6	80.6	35	51.3	0	1	135	0.00	29.969 
20:15	81.6	81.6	80.8	37	52.8	0	0	---	0.00	29.963 
20:20	81.4	81.4	80.6	36	51.9	0	1	135	0.00	29.963 
20:25	81.2	81.2	80.5	37	52.4	0	0	---	0.00	29.963 
20:30	81.1	81.1	80.5	38	53.1	0	0	---	0.00	29.970 
20:35	80.9	80.9	80.4	38	52.9	0	0	---	0.00	29.970 
20:40	80.5	80.5	80.2	39	53.2	0	0	---	0.00	29.970 
20:45	80.1	80.1	79.8	38	52.2	0	1	135	0.00	29.975 
20:50	80.1	80.1	79.9	39	52.9	0	0	---	0.00	29.975 
20:55	79.8	79.8	79.7	39	52.6	0	0	---	0.00	29.975 
21:00	79.6	79.6	79.6	39	52.4	0	0	---	0.00	29.973 
21:05	79.2	79.2	79.4	40	52.8	0	0	---	0.00	29.973 
21:10	78.8	78.8	79.2	40	52.4	0	0	---	0.00	29.973 
21:15	78.5	78.5	79.1	41	52.8	0	0	---	0.00	29.973 
21:20	78.1	78.1	78.8	41	52.5	0	0	---	0.00	29.973 
21:25	77.7	77.7	78.7	42	52.8	0	0	---	0.00	29.973 
21:30	77.4	77.4	78.5	42	52.5	0	0	---	0.00	29.979 
21:35	77.0	77.0	78.4	45	54.0	0	0	---	0.00	29.979 
21:40	76.7	76.7	78.3	45	53.7	0	0	---	0.00	29.979 
21:45	76.3	76.3	78.1	44	52.8	0	0	---	0.00	29.983 
21:50	76.1	76.1	78.0	45	53.2	0	0	---	0.00	29.983 
21:55	76.0	76.0	78.0	45	53.1	0	0	---	0.00	29.983 
22:00	75.8	75.8	77.9	46	53.5	0	0	---	0.00	29.988 
22:05	75.8	75.8	77.9	45	52.9	0	0	---	0.00	29.988 
22:10	75.8	75.8	77.9	45	52.9	0	0	---	0.00	29.988 
22:15	75.8	75.8	77.9	46	53.5	0	0	---	0.00	29.989 
22:20	75.8	75.8	77.9	45	52.9	0	1	135	0.00	29.989 
22:25	76.0	76.0	78.0	45	53.1	0	0	---	0.00	29.989 
22:30	76.1	76.1	78.0	45	53.2	0	1	135	0.00	29.988 
22:35	76.3	76.3	78.1	46	54.0	0	0	---	0.00	29.988 
22:40	76.3	76.3	78.1	45	53.4	0	1	135	0.00	29.988 
22:45	76.1	76.1	78.0	46	53.8	0	0	---	0.00	29.988 
22:50	76.1	76.1	78.0	46	53.8	0	1	135	0.00	29.988 
22:55	76.1	76.1	78.0	45	53.2	0	1	135	0.00	29.988 
23:00	76.3	76.3	78.1	45	53.4	0	0	---	0.00	29.990 
23:05	76.3	76.3	78.1	46	54.0	0	0	---	0.00	29.990 
23:10	76.1	76.1	78.0	46	53.8	0	0	---	0.00	29.990 
23:15	76.0	76.0	78.0	46	53.7	0	0	---	0.00	29.991 
23:20	76.0	76.0	78.0	47	54.3	0	0	---	0.00	29.991 
23:25	75.8	75.8	77.9	46	53.5	0	0	---	0.00	29.991 
23:30	75.6	75.6	77.9	47	53.9	0	0	---	0.00	29.991 
23:35	75.4	75.4	77.8	47	53.7	0	0	---	0.00	29.991 
23:40	75.1	75.1	77.7	48	54.1	0	0	---	0.00	29.991 
23:45	75.1	75.1	77.7	47	53.5	0	0	---	0.00	29.993 
23:50	74.9	74.9	74.9	48	53.9	0	0	---	0.00	29.993 
23:55	74.7	74.7	74.7	48	53.7	0	0	---	0.00	29.993 

CoCoRaHS
IN-AL-39
A2 Web Hosting
Creative Commons License
GoDaddy
search engine by freefind advanced

loaded 2018-11-17 12:41:45 • last modified 2010-11-18 10:43:29
Privacy PolicyDisclaimer
• wx.awcolley.com is powered by PmWiki v.2002016 •
• all content (unless otherwise noted) © 2018 A W Colley